Time;durP1;ratioP1;P1;durP2;ratioP2;P2;SDS_P1;SDS_P2;PMS_P1;PMS_P2;Temp;Humidity;BMP_temperature;BMP_pressure;BME280_temperature;BME280_humidity;BME280_pressure;Samples;Min_cycle;Max_cycle;Signal;HPM_P1;HPM_P2
2023/03/27 00:02:21;;;;;;;6.15;1.38;;;;;;;6.90;52.53;101393.38;4937966;28;115384;-77
2023/03/27 00:04:49;;;;;;;3.78;1.38;;;;;;;6.90;52.63;101403.91;4963639;28;124019;-77
2023/03/27 00:07:18;;;;;;;8.88;1.58;;;;;;;6.88;52.55;101408.34;4969215;28;124297;-77
2023/03/27 00:09:45;;;;;;;8.80;1.50;;;;;;;6.87;52.62;101403.97;4950141;28;115380;-77
2023/03/27 00:12:13;;;;;;;8.85;1.60;;;;;;;6.86;52.78;101403.09;4962687;28;115137;-77
2023/03/27 00:14:40;;;;;;;8.27;1.50;;;;;;;6.85;52.68;101411.91;4953274;28;123497;-77
2023/03/27 00:17:08;;;;;;;8.88;1.50;;;;;;;6.85;52.62;101411.03;4950474;28;124206;-77
2023/03/27 00:19:35;;;;;;;9.68;1.50;;;;;;;6.82;52.80;101418.09;4943396;28;115463;-77
2023/03/27 00:22:02;;;;;;;8.80;1.27;;;;;;;6.81;52.88;101426.88;4981256;28;116137;-77
2023/03/27 00:24:30;;;;;;;7.82;1.30;;;;;;;6.79;53.03;101422.56;4947115;28;123592;-77
2023/03/27 00:26:57;;;;;;;9.45;1.38;;;;;;;6.77;52.99;101427.84;4981352;28;123765;-77
2023/03/27 00:29:24;;;;;;;12.57;1.88;;;;;;;6.74;52.63;101430.56;4964536;28;115316;-77
2023/03/27 00:31:51;;;;;;;7.07;1.30;;;;;;;6.71;52.89;101438.50;4967867;28;112685;-77
2023/03/27 00:34:18;;;;;;;9.18;1.55;;;;;;;6.70;53.10;101435.91;4983959;28;124293;-77
2023/03/27 00:36:49;;;;;;;5.82;1.30;;;;;;;6.67;52.73;101450.00;4978420;28;124551;-77
2023/03/27 00:39:18;;;;;;;7.50;1.40;;;;;;;6.66;52.84;101448.25;4966839;28;115008;-76
2023/03/27 00:41:46;;;;;;;7.30;1.67;;;;;;;6.63;52.75;101453.59;4966654;28;112652;-76
2023/03/27 00:44:26;;;;;;;8.65;1.50;;;;;;;6.62;52.98;101451.84;4951545;28;125583;-77
2023/03/27 00:46:55;;;;;;;6.63;1.52;;;;;;;6.60;52.82;101465.03;4977044;28;125002;-77
2023/03/27 00:49:27;;;;;;;9.48;1.70;;;;;;;6.58;52.99;101465.97;4959028;28;114173;-77
2023/03/27 00:51:57;;;;;;;7.68;1.38;;;;;;;6.57;52.76;101469.47;4973115;28;114552;-77
2023/03/27 00:54:28;;;;;;;10.10;1.60;;;;;;;6.56;53.22;101462.50;4969717;28;125231;-77
2023/03/27 00:57:00;;;;;;;7.32;1.55;;;;;;;6.56;53.13;101470.38;4973293;28;124010;-77
2023/03/27 00:59:31;;;;;;;6.43;1.85;;;;;;;6.54;53.14;101469.53;4970003;28;114756;-77
2023/03/27 01:02:01;;;;;;;7.30;1.40;;;;;;;6.52;53.09;101471.34;4938765;28;112898;-77
2023/03/27 01:04:30;;;;;;;5.88;1.55;;;;;;;6.50;53.04;101467.84;4951517;28;123275;-77
2023/03/27 01:06:59;;;;;;;8.23;1.42;;;;;;;6.49;53.29;101471.38;4949920;28;123033;-77
2023/03/27 01:09:26;;;;;;;10.05;2.00;;;;;;;6.48;53.49;101469.63;4951184;28;113390;-77
2023/03/27 01:12:22;;;;;;;7.47;1.65;;;;;;;6.47;53.37;101478.44;4962257;28;115317;-77
2023/03/27 01:15:24;;;;;;;6.80;1.60;;;;;;;6.41;53.09;101480.28;4968206;28;124684;-77
2023/03/27 01:18:13;;;;;;;4.05;1.13;;;;;;;6.39;53.54;101482.06;4975247;28;124455;-77
2023/03/27 01:20:59;;;;;;;15.35;1.95;;;;;;;6.35;53.28;101485.66;4967168;28;113770;-77
2023/03/27 01:23:50;;;;;;;9.10;1.58;;;;;;;6.33;53.66;101487.44;4968537;28;114623;-77
2023/03/27 01:26:56;;;;;;;7.55;1.65;;;;;;;6.32;53.33;101490.97;4965684;28;124489;-77
2023/03/27 01:29:36;;;;;;;9.52;1.60;;;;;;;6.30;53.56;101495.38;4973721;28;123559;-77
2023/03/27 01:32:21;;;;;;;7.15;1.50;;;;;;;6.30;53.77;101503.28;4981400;28;115069;-77
2023/03/27 01:34:53;;;;;;;5.82;1.40;;;;;;;6.31;53.78;101505.03;4968895;28;114595;-77
2023/03/27 01:37:52;;;;;;;7.82;1.67;;;;;;;6.33;53.88;101507.59;4948651;28;123506;-77
2023/03/27 01:40:38;;;;;;;13.27;1.80;;;;;;;6.33;54.03;101523.38;4968864;28;122262;-77
2023/03/27 01:43:11;;;;;;;6.10;1.83;;;;;;;6.32;53.99;101527.78;4982400;28;113394;-77
2023/03/27 01:45:38;;;;;;;11.93;1.88;;;;;;;6.33;54.34;101521.66;4947377;28;112600;-76
2023/03/27 01:48:39;;;;;;;8.43;1.65;;;;;;;6.35;54.47;101522.47;4960911;28;121749;-76
2023/03/27 01:51:19;;;;;;;7.78;1.50;;;;;;;6.38;54.46;101527.69;4972201;28;124163;-76
2023/03/27 01:53:59;;;;;;;9.13;1.90;;;;;;;6.38;54.33;101530.31;4953416;28;113650;-76
2023/03/27 01:56:31;;;;;;;5.95;1.67;;;;;;;6.40;54.11;101520.66;4936687;28;114680;-76
2023/03/27 01:59:07;;;;;;;9.05;1.85;;;;;;;6.42;54.41;101521.50;4933317;28;125009;-76
2023/03/27 02:01:41;;;;;;;10.23;1.83;;;;;;;6.45;54.48;101522.34;4943361;28;124971;-76
2023/03/27 02:04:14;;;;;;;9.60;2.05;;;;;;;6.45;54.59;101524.97;4960055;28;116535;-76
2023/03/27 02:06:50;;;;;;;6.47;1.90;;;;;;;6.46;54.66;101530.22;4960525;28;115218;-76
2023/03/27 02:09:22;;;;;;;6.93;1.77;;;;;;;6.48;54.55;101543.31;4964133;28;124917;-76
2023/03/27 02:11:55;;;;;;;9.43;1.70;;;;;;;6.50;54.90;101538.88;4960557;28;123603;-76
2023/03/27 02:14:28;;;;;;;7.15;1.88;;;;;;;6.52;54.66;101545.88;4959801;28;115598;-76
2023/03/27 02:17:06;;;;;;;7.05;1.63;;;;;;;6.54;54.83;101545.88;4954117;28;115022;-76
2023/03/27 02:19:38;;;;;;;6.18;1.75;;;;;;;6.56;54.87;101546.69;4953490;28;125270;-76
2023/03/27 02:22:06;;;;;;;4.72;1.60;;;;;;;6.58;54.79;101556.28;4955671;28;125426;-76
2023/03/27 02:24:45;;;;;;;6.72;1.73;;;;;;;6.60;55.04;101559.78;4939097;28;115225;-76
2023/03/27 02:27:34;;;;;;;7.25;1.80;;;;;;;6.62;55.07;101562.38;4939543;28;113820;-77
2023/03/27 02:30:12;;;;;;;6.50;1.70;;;;;;;6.64;55.25;101579.00;4962148;28;124055;-76
2023/03/27 02:33:01;;;;;;;8.20;1.67;;;;;;;6.65;54.95;101583.41;4951585;28;123725;-77
2023/03/27 02:35:43;;;;;;;6.75;1.77;;;;;;;6.67;55.34;101594.75;4947832;28;115161;-76
2023/03/27 02:38:34;;;;;;;4.70;1.55;;;;;;;6.67;55.08;101592.13;4951069;28;114556;-76
2023/03/27 02:41:19;;;;;;;9.10;1.40;;;;;;;6.66;55.27;101590.38;4967484;28;124821;-76
2023/03/27 02:43:49;;;;;;;5.70;1.60;;;;;;;6.69;55.20;101585.06;4959481;28;123645;-76
2023/03/27 02:46:30;;;;;;;6.82;1.30;;;;;;;6.73;55.54;101581.50;4941602;28;115162;-76
2023/03/27 02:49:04;;;;;;;2.90;1.10;;;;;;;6.77;55.88;101580.53;4963937;28;114183;-76
2023/03/27 02:51:42;;;;;;;3.40;1.00;;;;;;;6.83;55.44;101593.59;4949216;28;125336;-76
2023/03/27 02:54:17;;;;;;;4.57;1.20;;;;;;;6.87;55.46;101598.81;4963466;28;125731;-77
2023/03/27 02:56:51;;;;;;;2.38;1.00;;;;;;;6.88;55.33;101600.56;4945827;28;114783;-76
2023/03/27 02:59:34;;;;;;;2.85;1.13;;;;;;;6.87;55.64;101604.94;4947885;28;116237;-76
2023/03/27 03:02:04;;;;;;;4.75;1.05;;;;;;;6.86;55.46;101607.63;4948000;28;125119;-76
2023/03/27 03:04:55;;;;;;;5.05;1.10;;;;;;;6.83;55.37;101609.38;4949155;28;125983;-76
2023/03/27 03:07:28;;;;;;;5.50;0.98;;;;;;;6.83;55.56;101619.91;4948216;28;115092;-76
2023/03/27 03:09:55;;;;;;;5.30;1.10;;;;;;;6.82;55.37;101618.19;4934468;28;115192;-76
2023/03/27 03:12:22;;;;;;;4.72;1.20;;;;;;;6.83;55.29;101614.66;4964876;28;122908;-76
2023/03/27 03:14:50;;;;;;;4.70;1.10;;;;;;;6.82;55.37;101618.19;4949717;28;126148;-76
2023/03/27 03:17:17;;;;;;;2.60;1.00;;;;;;;6.82;55.66;101620.84;4948028;28;115318;-76
2023/03/27 03:19:45;;;;;;;3.58;1.17;;;;;;;6.83;55.60;101625.19;4929490;28;115176;-76
2023/03/27 03:22:13;;;;;;;5.30;1.10;;;;;;;6.83;55.41;101633.09;4945744;28;123116;-76
2023/03/27 03:24:40;;;;;;;5.80;1.30;;;;;;;6.81;55.50;101637.50;4937675;28;124350;-76
2023/03/27 03:27:11;;;;;;;3.92;0.95;;;;;;;6.79;55.21;101639.31;4949093;28;114961;-76
2023/03/27 03:29:45;;;;;;;4.70;0.95;;;;;;;6.78;55.21;101642.84;4943478;28;115128;-76
2023/03/27 03:32:18;;;;;;;5.90;1.10;;;;;;;6.76;55.60;101644.63;4950873;28;124372;-76
2023/03/27 03:34:49;;;;;;;3.90;1.17;;;;;;;6.73;55.50;101649.94;4936003;28;123795;-76
2023/03/27 03:37:17;;;;;;;4.60;1.20;;;;;;;6.71;55.35;101651.72;4954323;28;115613;-76
2023/03/27 03:39:45;;;;;;;5.88;1.33;;;;;;;6.69;55.49;101656.16;4949023;28;115104;-76
2023/03/27 03:42:15;;;;;;;4.05;1.30;;;;;;;6.67;55.55;101660.56;4958820;28;125160;-76
2023/03/27 03:44:50;;;;;;;6.05;1.15;;;;;;;6.63;55.50;101649.22;4959829;28;125228;-76
2023/03/27 03:47:20;;;;;;;4.57;1.00;;;;;;;6.62;55.55;101662.41;4957195;28;116370;-76
2023/03/27 03:49:48;;;;;;;6.40;1.40;;;;;;;6.59;55.34;101665.06;4962895;28;114139;-76
2023/03/27 03:52:15;;;;;;;4.25;0.98;;;;;;;6.56;55.68;101673.03;4959236;28;123527;-76
2023/03/27 03:54:43;;;;;;;4.82;1.30;;;;;;;6.52;55.44;101676.59;4959238;28;124168;-76
2023/03/27 03:57:12;;;;;;;4.13;1.10;;;;;;;6.48;55.30;101680.16;4936186;28;113713;-76
2023/03/27 03:59:40;;;;;;;3.08;1.05;;;;;;;6.44;55.73;101684.59;4938163;28;114096;-76
2023/03/27 04:02:37;;;;;;;3.78;1.15;;;;;;;6.40;55.83;101686.41;4940641;28;124568;-77
2023/03/27 04:05:09;;;;;;;3.75;1.27;;;;;;;6.37;55.34;101694.34;4932405;28;125245;-76
2023/03/27 04:07:38;;;;;;;3.75;1.30;;;;;;;6.33;55.72;101697.91;4931921;28;115339;-76
2023/03/27 04:10:21;;;;;;;4.07;1.10;;;;;;;6.30;55.31;101697.94;4950007;28;115119;-76
2023/03/27 04:12:50;;;;;;;2.83;1.20;;;;;;;6.27;55.76;101697.97;4951298;28;124551;-76
2023/03/27 04:15:22;;;;;;;5.25;1.38;;;;;;;6.25;55.89;101710.28;4946771;28;125732;-76
2023/03/27 04:18:07;;;;;;;3.42;1.20;;;;;;;6.20;55.61;101706.84;4952895;28;114503;-76
2023/03/27 04:20:37;;;;;;;3.67;1.42;;;;;;;6.15;55.56;101713.94;4935200;28;113079;-76
2023/03/27 04:23:09;;;;;;;3.25;1.48;;;;;;;6.12;55.53;101713.94;4948648;28;124864;-76
2023/03/27 04:25:38;;;;;;;4.15;1.42;;;;;;;6.11;55.74;101722.75;4944133;28;125183;-78
2023/03/27 04:28:09;;;;;;;4.75;1.50;;;;;;;6.10;55.85;101721.00;4948257;28;115271;-78
2023/03/27 04:30:43;;;;;;;4.22;1.80;;;;;;;6.08;55.81;101728.91;4949942;28;116046;-78
2023/03/27 04:33:17;;;;;;;7.03;1.42;;;;;;;6.09;56.03;101740.31;4946978;28;125257;-77
2023/03/27 04:35:51;;;;;;;10.15;1.63;;;;;;;6.09;56.21;101745.56;4964363;28;124496;-76
2023/03/27 04:39:01;;;;;;;4.30;1.50;;;;;;;6.07;56.25;101747.34;4944562;28;115068;-76
2023/03/27 04:41:31;;;;;;;5.57;1.73;;;;;;;6.07;56.29;101747.34;4929423;28;114678;-76
2023/03/27 04:43:59;;;;;;;4.80;1.52;;;;;;;6.07;56.46;101749.97;4933541;28;123365;-77
2023/03/27 04:46:28;;;;;;;3.78;1.50;;;;;;;6.07;56.61;101752.63;4932338;28;96941;-76
2023/03/27 04:49:00;;;;;;;4.32;1.40;;;;;;;6.07;56.37;101757.88;4937221;28;115377;-77
2023/03/27 04:51:44;;;;;;;6.72;1.42;;;;;;;6.08;56.51;101759.59;4935406;28;112292;-76
2023/03/27 04:54:12;;;;;;;6.13;1.48;;;;;;;6.09;56.58;101761.34;4935995;28;124672;-76
2023/03/27 04:56:45;;;;;;;7.50;1.67;;;;;;;6.12;56.58;101771.81;4949421;28;122877;-76
2023/03/27 04:59:14;;;;;;;4.68;1.60;;;;;;;6.15;56.66;101787.56;4952149;28;115267;-76
2023/03/27 05:01:43;;;;;;;4.95;1.55;;;;;;;6.17;56.45;101785.78;4951623;28;114771;-76
2023/03/27 05:04:37;;;;;;;6.00;1.55;;;;;;;6.19;56.46;101791.91;4956511;28;123383;-76
2023/03/27 05:07:11;;;;;;;6.70;1.67;;;;;;;6.20;56.65;101785.75;4933696;28;125049;-76
2023/03/27 05:09:38;;;;;;;6.22;1.42;;;;;;;6.22;56.72;101794.50;4933742;28;114075;-76
2023/03/27 05:12:07;;;;;;;3.63;1.08;;;;;;;6.23;56.62;101794.50;4951208;28;114705;-76
2023/03/27 05:14:40;;;;;;;6.10;1.42;;;;;;;6.26;56.74;101795.34;4950602;28;125202;-76
2023/03/27 05:17:24;;;;;;;4.85;1.52;;;;;;;6.27;56.37;101797.94;4931537;28;124215;-76
2023/03/27 05:19:52;;;;;;;3.47;1.50;;;;;;;6.26;56.54;101795.34;4948162;28;115953;-76
2023/03/27 05:22:20;;;;;;;3.88;1.55;;;;;;;6.23;56.50;101804.13;4948961;28;115549;-76
2023/03/27 05:24:55;;;;;;;6.45;1.50;;;;;;;6.22;56.49;101810.28;4953796;28;124754;-76
2023/03/27 05:27:22;;;;;;;3.97;1.23;;;;;;;6.21;56.14;101803.28;4935005;28;123834;-77
2023/03/27 05:29:53;;;;;;;4.72;1.60;;;;;;;6.20;56.21;101817.34;4923491;28;115006;-77
2023/03/27 05:32:20;;;;;;;4.75;1.48;;;;;;;6.19;56.23;101821.69;4949128;28;115312;-76
2023/03/27 05:34:53;;;;;;;4.47;1.40;;;;;;;6.19;56.07;101826.09;4949435;28;124249;-76
2023/03/27 05:37:21;;;;;;;4.47;1.40;;;;;;;6.16;56.28;101820.84;4935318;28;124083;-76
2023/03/27 05:40:07;;;;;;;;;;;;;;;6.12;56.12;101824.41;4952916;28;115031;-76
2023/03/27 05:42:41;;;;;;;3.83;1.35;;;;;;;6.10;56.08;101831.44;4951527;28;114853;-76
2023/03/27 05:45:08;;;;;;;7.88;1.55;;;;;;;6.08;56.30;101839.34;4949043;28;125362;-76
2023/03/27 05:47:51;;;;;;;4.50;1.67;;;;;;;6.04;56.53;101830.63;4948666;28;123504;-76
2023/03/27 05:50:22;;;;;;;4.03;1.60;;;;;;;6.03;56.47;101839.41;4958531;28;115352;-76
2023/03/27 05:52:56;;;;;;;5.45;2.00;;;;;;;6.01;56.35;101832.44;4960732;28;115222;-77
2023/03/27 05:55:31;;;;;;;5.43;1.73;;;;;;;5.99;56.38;101829.81;4949051;28;126256;-76
2023/03/27 05:57:58;;;;;;;7.53;2.20;;;;;;;5.99;56.45;101835.06;4947397;28;123074;-76
2023/03/27 06:00:30;;;;;;;5.00;2.53;;;;;;;5.99;56.37;101836.81;4943277;28;113537;-76
2023/03/27 06:03:00;;;;;;;5.25;2.65;;;;;;;5.98;56.39;101849.09;4955431;28;113874;-76
2023/03/27 06:05:58;;;;;;;7.63;2.10;;;;;;;5.95;56.61;101842.97;4944665;28;124188;-76
2023/03/27 06:08:33;;;;;;;5.10;1.98;;;;;;;5.95;56.44;101849.16;4929850;28;125049;-76
2023/03/27 06:11:06;;;;;;;8.98;2.50;;;;;;;5.94;56.77;101847.34;4948631;28;115056;-76
2023/03/27 06:13:36;;;;;;;5.03;1.67;;;;;;;5.94;56.47;101849.97;4939784;28;115361;-76
2023/03/27 06:16:07;;;;;;;5.32;1.63;;;;;;;5.94;56.92;101857.88;4928515;28;123869;-76
2023/03/27 06:18:53;;;;;;;;;;;;;;;5.95;56.86;101871.88;4949071;28;125162;-76
2023/03/27 06:21:20;;;;;;;4.78;1.60;;;;;;;5.97;56.79;101878.94;4949630;28;114668;-76
2023/03/27 06:23:55;;;;;;;5.22;1.50;;;;;;;6.00;57.00;101884.13;4931667;28;114130;-76
2023/03/27 06:26:22;;;;;;;4.38;1.52;;;;;;;6.04;56.97;101879.72;4947594;28;125492;-76
2023/03/27 06:28:49;;;;;;;3.35;1.40;;;;;;;6.07;56.99;101878.84;4950636;28;122915;-76
2023/03/27 06:31:18;;;;;;;3.65;1.85;;;;;;;6.10;57.20;101884.06;4951398;28;114439;-76
2023/03/27 06:33:57;;;;;;;4.07;1.50;;;;;;;6.13;57.06;101894.56;4949154;28;113619;-76
2023/03/27 06:36:47;;;;;;;5.38;1.60;;;;;;;6.17;57.10;101891.00;4940117;28;123866;-77
2023/03/27 06:39:15;;;;;;;3.95;1.45;;;;;;;6.21;57.11;101887.44;4956356;28;124386;-77
2023/03/27 06:41:48;;;;;;;5.95;1.70;;;;;;;6.29;57.37;101893.53;4959798;28;115960;-76
2023/03/27 06:44:36;;;;;;;5.55;1.92;;;;;;;6.34;57.34;101889.06;4949483;28;115599;-77
2023/03/27 06:47:28;;;;;;;4.70;1.55;;;;;;;6.45;57.42;101890.72;4958622;28;125905;-76
2023/03/27 06:50:20;;;;;;;5.13;1.60;;;;;;;6.61;57.89;101893.16;4940563;28;125359;-76
2023/03/27 06:52:48;;;;;;;3.78;1.58;;;;;;;6.77;57.96;101891.19;4949033;28;115010;-76
2023/03/27 06:55:38;;;;;;;5.90;2.03;;;;;;;6.97;58.02;101892.72;4935430;28;115281;-76
2023/03/27 06:58:06;;;;;;;6.18;1.60;;;;;;;7.12;57.71;101904.78;4951622;28;123509;-76
2023/03/27 07:00:36;;;;;;;7.40;1.50;;;;;;;7.26;57.53;101904.63;4949806;28;124773;-76
2023/03/27 07:03:21;;;;;;;4.65;1.63;;;;;;;7.37;57.89;101905.34;4953050;28;115047;-76
2023/03/27 07:06:00;;;;;;;5.15;1.27;;;;;;;7.46;57.57;101910.47;4967858;28;115352;-76
2023/03/27 07:08:38;;;;;;;5.63;1.33;;;;;;;7.57;57.19;101908.56;4940111;28;123271;-76
2023/03/27 07:11:06;;;;;;;3.13;1.25;;;;;;;7.68;57.44;101915.41;4954462;28;123813;-76
2023/03/27 07:13:43;;;;;;;4.00;1.30;;;;;;;7.80;57.24;101909.97;4953326;28;116032;-76
2023/03/27 07:16:19;;;;;;;5.43;1.33;;;;;;;7.92;57.36;101924.69;4940124;28;115321;-76
2023/03/27 07:18:47;;;;;;;4.53;1.33;;;;;;;8.01;57.35;101923.69;4955000;28;125041;-76
2023/03/27 07:21:14;;;;;;;5.35;1.63;;;;;;;8.10;57.12;101923.50;4950920;28;125002;-76
2023/03/27 07:23:44;;;;;;;5.80;1.63;;;;;;;8.19;56.90;101928.63;4954145;28;115180;-76
2023/03/27 07:26:15;;;;;;;4.75;1.33;;;;;;;8.26;56.93;101932.91;4935489;28;115219;-76
2023/03/27 07:28:54;;;;;;;3.30;1.20;;;;;;;8.35;56.92;101934.50;4949169;28;123837;-77
2023/03/27 07:31:21;;;;;;;3.33;1.30;;;;;;;8.47;57.21;101944.00;4953964;28;125691;-77
2023/03/27 07:34:10;;;;;;;6.63;1.40;;;;;;;8.63;57.18;101950.75;4954177;28;115448;-79
2023/03/27 07:37:00;;;;;;;4.80;1.20;;;;;;;8.81;57.20;101953.91;4953967;28;113736;-77
2023/03/27 07:39:29;;;;;;;6.68;1.20;;;;;;;8.92;56.74;101962.50;4961609;28;124256;-78
2023/03/27 07:41:56;;;;;;;2.50;1.27;;;;;;;8.98;56.87;101956.22;4953604;28;125157;-78
2023/03/27 07:44:29;;;;;;;3.13;1.00;;;;;;;9.05;56.79;101948.13;4939647;28;115175;-79
2023/03/27 07:47:01;;;;;;;7.50;1.60;;;;;;;9.13;56.60;101956.75;4934731;28;114563;-77
2023/03/27 07:49:29;;;;;;;5.55;1.00;;;;;;;9.24;56.80;101958.31;4953380;28;123686;-77
2023/03/27 07:52:10;;;;;;;3.47;1.30;;;;;;;9.31;56.38;101960.81;4959634;28;125307;-78
2023/03/27 07:54:47;;;;;;;4.63;1.27;;;;;;;9.34;56.03;101959.84;4946531;28;115287;-78
2023/03/27 07:57:17;;;;;;;2.13;1.05;;;;;;;9.35;55.82;101961.59;4945396;28;113088;-77
2023/03/27 07:59:51;;;;;;;5.90;1.50;;;;;;;9.37;55.79;101949.22;4959424;28;125053;-77
2023/03/27 08:02:42;;;;;;;3.88;1.40;;;;;;;9.43;55.92;101959.66;4956028;28;125147;-78
2023/03/27 08:05:11;;;;;;;5.10;1.45;;;;;;;9.51;55.63;101970.06;4963505;28;114218;-78
2023/03/27 08:07:44;;;;;;;5.93;1.50;;;;;;;9.59;55.60;101954.00;4949541;28;112995;-77
2023/03/27 08:10:14;;;;;;;6.32;1.40;;;;;;;9.67;55.63;101958.22;4948614;28;125306;-77
2023/03/27 08:12:54;;;;;;;5.40;1.23;;;;;;;9.80;55.64;101960.59;4948552;28;127762;-77
2023/03/27 08:15:23;;;;;;;4.65;1.40;;;;;;;9.87;55.54;101960.41;4938458;28;114323;-77
2023/03/27 08:17:53;;;;;;;6.55;1.25;;;;;;;9.91;55.18;101964.72;4953934;28;115458;-77
2023/03/27 08:20:24;;;;;;;7.75;1.10;;;;;;;9.94;54.90;101977.88;4938370;28;125512;-77
2023/03/27 08:22:52;;;;;;;4.13;1.02;;;;;;;9.93;54.76;101978.78;4950521;28;125324;-77
2023/03/27 08:25:42;;;;;;;5.78;1.40;;;;;;;9.88;54.73;101983.31;4943389;28;114320;-77
2023/03/27 08:28:09;;;;;;;7.60;1.10;;;;;;;9.85;54.16;101988.69;4937774;28;115240;-77
2023/03/27 08:30:40;;;;;;;4.68;1.25;;;;;;;9.88;54.47;101988.59;4940046;28;123237;-78
2023/03/27 08:33:08;;;;;;;4.43;1.30;;;;;;;9.93;54.56;101992.00;4921333;28;124782;-78
2023/03/27 08:35:36;;;;;;;5.03;1.25;;;;;;;10.00;54.41;101991.84;4934205;28;113433;-78
2023/03/27 08:38:03;;;;;;;2.95;0.95;;;;;;;10.05;54.30;101995.28;4921832;28;115348;-78
2023/03/27 08:41:03;;;;;;;6.60;1.13;;;;;;;10.15;54.80;101996.78;4939011;28;123440;-78
2023/03/27 08:43:46;;;;;;;8.83;1.07;;;;;;;10.25;54.80;101993.00;4926188;28;122238;-79
2023/03/27 08:46:27;;;;;;;3.70;1.10;;;;;;;10.35;54.42;101998.09;4938610;28;113773;-79
2023/03/27 08:49:24;;;;;;;3.50;0.85;;;;;;;10.45;54.30;101989.00;4955856;28;114929;-79
2023/03/27 08:52:30;;;;;;;3.35;0.90;;;;;;;10.52;54.07;101990.56;4952024;28;123831;-80
2023/03/27 08:55:04;;;;;;;5.38;0.85;;;;;;;10.56;53.79;102002.81;4938928;28;123448;-80
2023/03/27 08:57:37;;;;;;;6.05;0.82;;;;;;;10.56;53.61;102008.13;4956467;28;114323;-80
2023/03/27 09:00:23;;;;;;;;;;;;;;;10.52;53.85;102006.47;4941890;28;115966;-80
2023/03/27 09:03:04;;;;;;;4.15;1.35;;;;;;;10.52;53.85;102017.06;4943501;28;125449;-79
2023/03/27 09:05:41;;;;;;;4.55;0.70;;;;;;;10.53;53.49;102024.13;4952990;28;123613;-80
2023/03/27 09:08:18;;;;;;;3.30;0.80;;;;;;;10.49;53.41;102025.97;4957202;28;115837;-79
2023/03/27 09:11:08;;;;;;;5.68;0.82;;;;;;;10.45;52.98;102020.78;4969065;28;114510;-80
2023/03/27 09:13:48;;;;;;;3.63;0.80;;;;;;;10.47;53.39;102024.25;4943002;28;124208;-79
2023/03/27 09:16:47;;;;;;;2.00;0.70;;;;;;;10.54;53.39;102028.50;4968958;28;123539;-79
2023/03/27 09:19:43;;;;;;;5.35;0.70;;;;;;;10.62;53.17;102034.44;4938093;28;115530;-79
2023/03/27 09:22:28;;;;;;;2.70;0.80;;;;;;;10.67;52.95;102037.84;4950234;28;115210;-80
2023/03/27 09:25:31;;;;;;;5.13;1.00;;;;;;;10.71;53.12;102046.59;4938621;28;125235;-78
2023/03/27 09:28:24;;;;;;;3.47;0.90;;;;;;;10.77;53.08;102040.25;4964693;28;123760;-78
2023/03/27 09:31:22;;;;;;;3.65;0.80;;;;;;;10.87;52.89;102044.44;4939283;28;115961;-78
2023/03/27 09:33:49;;;;;;;3.08;0.82;;;;;;;10.97;52.77;102024.69;4949814;28;113151;-78
2023/03/27 09:36:17;;;;;;;3.58;1.00;;;;;;;11.02;52.61;102029.84;4952244;28;123478;-78
2023/03/27 09:38:49;;;;;;;6.30;0.90;;;;;;;11.05;52.16;102030.66;4949567;28;125232;-78
2023/03/27 09:41:27;;;;;;;2.65;0.60;;;;;;;11.07;51.99;102042.06;4934676;28;114948;-77
2023/03/27 09:44:02;;;;;;;2.28;0.90;;;;;;;11.06;51.87;102035.03;4964800;28;113839;-77
2023/03/27 09:46:35;;;;;;;2.92;0.95;;;;;;;11.02;51.69;102041.34;4949240;28;123919;-78
2023/03/27 09:49:16;;;;;;;2.92;0.60;;;;;;;10.99;51.39;102033.47;4952471;28;123536;-79
2023/03/27 09:51:50;;;;;;;5.33;0.90;;;;;;;10.98;51.45;102052.06;4932084;28;116506;-76
2023/03/27 09:54:54;;;;;;;4.05;0.90;;;;;;;10.96;51.38;102049.44;4951933;28;116113;-77
2023/03/27 09:57:32;;;;;;;7.50;0.80;;;;;;;10.94;51.59;102051.28;4939414;28;123504;-77
2023/03/27 10:00:26;;;;;;;4.32;0.70;;;;;;;10.90;51.14;102058.44;4932438;28;124198;-77
2023/03/27 10:03:06;;;;;;;3.35;0.73;;;;;;;10.86;51.07;102063.88;4961164;28;112632;-77
2023/03/27 10:05:38;;;;;;;2.97;0.70;;;;;;;10.83;51.07;102070.13;4927818;28;115321;-78
2023/03/27 10:08:31;;;;;;;3.72;0.77;;;;;;;10.83;51.16;102064.84;4963263;28;125451;-77
2023/03/27 10:11:24;;;;;;;3.80;0.88;;;;;;;10.92;51.39;102063.69;4948967;28;122514;-77
2023/03/27 10:13:58;;;;;;;3.63;0.70;;;;;;;11.03;51.06;102061.63;4945675;28;114153;-77
2023/03/27 10:16:27;;;;;;;2.75;0.90;;;;;;;11.16;50.94;102071.91;4949124;28;113597;-78
2023/03/27 10:18:59;;;;;;;1.60;0.70;;;;;;;11.23;50.77;102060.22;4945093;28;123544;-77
2023/03/27 10:21:34;;;;;;;5.60;0.82;;;;;;;11.24;50.41;102069.91;4946931;28;125173;-78
2023/03/27 10:24:20;;;;;;;3.03;0.75;;;;;;;11.23;50.08;102073.50;4930506;28;115085;-78
2023/03/27 10:27:24;;;;;;;3.35;0.70;;;;;;;11.16;49.89;102077.22;4953578;28;113674;-78
2023/03/27 10:30:32;;;;;;;2.25;0.63;;;;;;;11.09;49.82;102077.41;4940935;28;124738;-78
2023/03/27 10:33:31;;;;;;;2.30;0.63;;;;;;;11.12;49.96;102086.19;4954565;28;123759;-78
2023/03/27 10:36:24;;;;;;;1.88;0.77;;;;;;;11.23;50.38;102073.50;4925500;28;114291;-78
2023/03/27 10:39:04;;;;;;;2.72;0.80;;;;;;;11.34;49.93;102076.72;4945955;28;113506;-79
2023/03/27 10:41:45;;;;;;;4.88;0.80;;;;;;;11.43;49.94;102076.44;4939836;28;124984;-79
2023/03/27 10:44:24;;;;;;;4.75;0.70;;;;;;;11.53;49.63;102100.03;4945476;28;124755;-78
2023/03/27 10:46:55;;;;;;;1.77;0.75;;;;;;;11.59;49.83;102118.44;4953694;28;115873;-78
2023/03/27 10:49:41;;;;;;;2.92;0.63;;;;;;;11.46;49.17;102118.78;4952176;28;114517;-78
2023/03/27 10:52:24;;;;;;;1.13;0.50;;;;;;;11.21;48.85;102120.41;4951175;28;126032;-80
2023/03/27 10:55:30;;;;;;;1.90;0.68;;;;;;;10.89;49.08;102143.31;4958135;28;124853;-78
2023/03/27 10:58:04;;;;;;;1.60;0.60;;;;;;;10.67;49.15;102149.13;4935936;28;113974;-77
2023/03/27 11:00:37;;;;;;;1.63;0.57;;;;;;;10.48;49.55;102140.78;4936682;28;113464;-78
2023/03/27 11:03:26;;;;;;;3.20;0.50;;;;;;;10.36;50.05;102142.81;4932835;28;123348;-78
2023/03/27 11:06:03;;;;;;;1.45;0.63;;;;;;;10.30;50.38;102149.09;4926763;28;125446;-79
2023/03/27 11:09:00;;;;;;;2.17;0.60;;;;;;;10.23;50.42;102143.09;4952751;28;114970;-78
2023/03/27 11:11:34;;;;;;;2.58;0.70;;;;;;;10.21;50.92;102150.19;4933243;28;115020;-78
2023/03/27 11:14:09;;;;;;;3.65;0.70;;;;;;;10.22;50.90;102146.63;4915381;28;124935;-78
2023/03/27 11:16:47;;;;;;;2.60;0.60;;;;;;;10.21;50.72;102150.19;4936982;28;123174;-79
2023/03/27 11:19:36;;;;;;;2.03;0.68;;;;;;;10.20;50.77;102152.88;4970032;28;115901;-78
2023/03/27 11:22:42;;;;;;;5.18;0.80;;;;;;;10.20;50.78;102159.03;4953027;28;114680;-78
2023/03/27 11:25:19;;;;;;;1.67;0.60;;;;;;;10.23;50.80;102152.81;4952505;28;125640;-79
2023/03/27 11:28:04;;;;;;;3.15;0.60;;;;;;;10.27;50.82;102155.34;4946168;28;125301;-78
2023/03/27 11:30:47;;;;;;;1.27;0.63;;;;;;;10.35;50.67;102162.28;4952233;28;115443;-78
2023/03/27 11:33:42;;;;;;;1.35;0.60;;;;;;;10.42;50.70;102153.31;4968981;28;111936;-77
2023/03/27 11:36:13;;;;;;;1.27;0.52;;;;;;;10.52;50.73;102152.16;4952177;28;124975;-78
2023/03/27 11:39:00;;;;;;;3.78;0.70;;;;;;;10.60;50.73;102158.13;4944194;28;122123;-78
2023/03/27 11:41:27;;;;;;;1.25;0.82;;;;;;;10.70;50.37;102142.91;4946065;28;114809;-78
2023/03/27 11:43:59;;;;;;;1.38;0.60;;;;;;;10.82;50.47;102136.44;4946714;28;113106;-78
2023/03/27 11:47:31;;;;;;;3.38;0.65;;;;;;;10.96;50.10;102155.47;4950275;28;125449;-77
2023/03/27 11:50:37;;;;;;;2.80;0.60;;;;;;;11.06;49.67;102146.41;4950697;28;123341;-77
2023/03/27 11:53:14;;;;;;;2.60;0.77;;;;;;;11.13;49.94;102156.84;4946635;28;115407;-77
2023/03/27 11:56:09;;;;;;;1.83;0.60;;;;;;;11.25;49.72;102146.78;4945603;28;114500;-76
2023/03/27 11:58:56;;;;;;;3.03;0.60;;;;;;;11.38;49.78;102152.63;4966670;28;124958;-77
2023/03/27 12:01:56;;;;;;;6.82;0.90;;;;;;;11.50;49.48;102149.63;4940361;28;128262;-77
2023/03/27 12:04:32;;;;;;;3.10;0.70;;;;;;;11.62;49.68;102144.88;4963324;28;115871;-77
2023/03/27 12:07:48;;;;;;;4.72;0.70;;;;;;;11.81;49.89;102146.09;4969752;28;114673;-77
2023/03/27 12:10:35;;;;;;;3.22;1.02;;;;;;;12.00;49.90;102153.56;4940852;28;125337;-78
2023/03/27 12:13:33;;;;;;;5.53;1.10;;;;;;;12.15;49.50;102149.56;4944319;28;122271;-78